ニジネヴァルトフスク の空港の天気 - METARとTAF

Nizhnevartovsk ( USNN / NJC ) - ロシア ニジネヴァルトフスク
飛行場実況気象(Metar)
観測時間01/21 23:00 YEKT (01/21 18:00 UTC)
風向・風速北北東 2m/s
視程750m
天気現象
全天を覆う雲 鉛直視程 60m
気温-41℃
湿度65%
気圧1066hPa
METARUSNN 211800Z 03002MPS 0750 0600N R03/P2000D FG VV002 M41/M45 Q1066 R03/32//65 NOSIG RMK QBB070 QFE795
過去の天気等 Google飛行場航空写真 Wunderground天気予報

過去48時間のMETAR

飛行場予報(TAF)
発表時間: 1/21 22:00 YEKT (1/21 17:00 UTC)
予報対象時間: 21日23時 YEKT ~ 22日23時 YEKT
風向・風速北東 3m/s
視程1,000m
天気現象もや 煙
全天の8割程度の雲 雲底高度 90m
21日23時 YEKT ~ 22日10時 YEKT に一時的に
風向・風速不定 1m/s
視程500m
天気現象氷霧
全天を覆う雲 鉛直視程 60m
22日11時 YEKT から
風向・風速北西 3m/s
視程4,000m
天気現象もや
全天の4割程度の雲 雲底高度 210m
TAF USNN 211700Z 2118/2218 04003MPS 1000 BR FU BKN003 TXM40/2118Z TNM43/2203Z
TEMPO 2118/2205 VRB01MPS 0500 FZFG VV002
FM220600 32003MPS 4000 BR SCT007